createdAt,value
2022-09-30T00:03:17.571Z,20.6
2022-09-30T00:08:55.327Z,20.6
2022-09-30T00:14:32.145Z,20.6
2022-09-30T00:19:54.231Z,20.6
2022-09-30T00:24:44.982Z,20.6
2022-09-30T00:30:21.550Z,20.6
2022-09-30T00:36:00.219Z,20.6
2022-09-30T00:41:36.296Z,20.6
2022-09-30T00:47:17.934Z,20.6
2022-09-30T00:52:40.783Z,20.6
2022-09-30T00:58:16.961Z,20.6
2022-09-30T01:03:53.815Z,20.6
2022-09-30T01:09:31.637Z,20.6
2022-09-30T01:15:11.799Z,20.6
2022-09-30T01:20:49.750Z,20.6
2022-09-30T01:26:17.424Z,20.6
2022-09-30T01:31:38.343Z,20.6
2022-09-30T01:36:59.923Z,20.6
2022-09-30T01:42:22.116Z,20.6
2022-09-30T01:47:58.740Z,20.6
2022-09-30T01:53:34.781Z,20.6
2022-09-30T01:59:12.862Z,20.6
2022-09-30T02:04:49.406Z,20.6
2022-09-30T02:10:27.017Z,20.6
2022-09-30T02:16:04.431Z,20.6
2022-09-30T02:21:41.330Z,20.6
2022-09-30T02:27:18.361Z,20.6
2022-09-30T02:32:56.236Z,20.6
2022-09-30T02:38:02.768Z,20.6
2022-09-30T02:43:23.991Z,20.6
2022-09-30T02:48:46.549Z,20.6
2022-09-30T02:54:07.230Z,20.6
2022-09-30T02:59:44.639Z,20.6
2022-09-30T03:05:29.031Z,20.6
2022-09-30T03:11:06.100Z,20.6
2022-09-30T03:16:30.744Z,20.6
2022-09-30T03:21:38.520Z,20.5
2022-09-30T03:26:59.684Z,20.6
2022-09-30T03:32:38.199Z,20.6
2022-09-30T03:38:15.922Z,20.6
2022-09-30T03:43:52.311Z,20.6
2022-09-30T03:49:28.612Z,20.5
2022-09-30T03:55:05.958Z,20.6
2022-09-30T04:00:42.797Z,20.5
2022-09-30T04:06:19.597Z,20.6
2022-09-30T04:11:58.047Z,20.5
2022-09-30T04:17:38.748Z,20.5
2022-09-30T04:23:00.276Z,20.5
2022-09-30T04:28:22.638Z,20.6
2022-09-30T04:34:03.757Z,20.6
2022-09-30T04:39:41.556Z,20.6
2022-09-30T04:45:04.270Z,20.6
2022-09-30T04:50:46.633Z,20.6
2022-09-30T04:56:08.435Z,20.6
2022-09-30T05:01:31.822Z,20.6
2022-09-30T05:07:09.596Z,20.6
2022-09-30T05:12:51.875Z,20.6
2022-09-30T05:18:29.610Z,20.6
2022-09-30T05:24:11.655Z,20.6
2022-09-30T05:29:49.114Z,20.6
2022-09-30T05:35:27.666Z,20.6
2022-09-30T05:41:04.953Z,20.6
2022-09-30T05:46:42.633Z,20.6
2022-09-30T05:52:26.045Z,20.5
2022-09-30T05:58:09.141Z,20.6
2022-09-30T06:03:55.923Z,20.5
2022-09-30T06:09:40.673Z,20.6
2022-09-30T06:15:18.071Z,20.5
2022-09-30T06:20:56.296Z,20.6
2022-09-30T06:26:36.025Z,20.6
2022-09-30T06:32:15.187Z,20.6
2022-09-30T06:37:53.089Z,20.6
2022-09-30T06:43:31.830Z,20.6
2022-09-30T06:51:02.513Z,20.6
2022-09-30T06:56:40.203Z,20.6
2022-09-30T07:02:19.139Z,20.6
2022-09-30T07:07:58.832Z,20.6
2022-09-30T07:13:36.186Z,20.7
2022-09-30T07:19:14.975Z,20.6
2022-09-30T07:24:52.406Z,20.6
2022-09-30T07:31:20.256Z,20.6
2022-09-30T07:37:07.294Z,20.6
2022-09-30T07:42:45.574Z,20.6
2022-09-30T07:48:26.600Z,20.6
2022-09-30T07:54:04.840Z,20.6
2022-09-30T08:00:37.765Z,20.5
2022-09-30T08:06:23.468Z,20.5
2022-09-30T08:12:02.133Z,20.5
2022-09-30T08:17:42.060Z,20.6
2022-09-30T08:23:26.257Z,20.6
2022-09-30T08:29:04.769Z,20.6
2022-09-30T08:35:12.897Z,20.6
2022-09-30T08:40:52.379Z,20.6
2022-09-30T08:46:54.848Z,20.6
2022-09-30T08:52:49.230Z,20.7
2022-09-30T08:58:36.885Z,20.6
2022-09-30T09:04:15.660Z,20.7
2022-09-30T09:09:57.744Z,20.7
2022-09-30T09:15:35.597Z,20.7
2022-09-30T09:21:23.672Z,20.8
2022-09-30T09:27:06.716Z,20.8
2022-09-30T09:32:30.353Z,20.8
2022-09-30T09:37:56.101Z,20.8
2022-09-30T09:43:42.560Z,20.9
2022-09-30T09:54:44.251Z,20.9
2022-09-30T10:00:26.403Z,20.9
2022-09-30T10:06:08.678Z,20.9
2022-09-30T10:11:31.430Z,20.9
2022-09-30T10:17:08.729Z,20.9
2022-09-30T10:22:31.581Z,21.1
2022-09-30T10:28:13.016Z,21.1
2022-09-30T10:33:56.278Z,21.1
2022-09-30T10:39:38.855Z,21.1
2022-09-30T11:12:40.983Z,21.3
2022-09-30T11:18:19.617Z,21.3
2022-09-30T11:23:56.920Z,21.3
2022-09-30T11:29:21.862Z,21.3
2022-09-30T11:34:47.211Z,21.3
2022-09-30T11:40:24.666Z,21.3
2022-09-30T11:46:01.950Z,21.3
2022-09-30T11:51:24.427Z,21.3
2022-09-30T11:57:02.304Z,21.4
2022-09-30T12:02:49.455Z,21.3
2022-09-30T12:08:28.413Z,21.3
2022-09-30T12:13:56.063Z,21.3
2022-09-30T12:19:24.572Z,21.3
2022-09-30T12:24:47.792Z,21.4
2022-09-30T12:30:27.478Z,21.4
2022-09-30T12:36:05.019Z,21.3
2022-09-30T12:41:43.550Z,21.3
2022-09-30T12:47:21.333Z,21.3
2022-09-30T12:52:59.623Z,21.4
2022-09-30T12:58:37.587Z,21.3
2022-09-30T13:04:15.792Z,21.4
2022-09-30T13:09:55.750Z,21.4
2022-09-30T13:15:18.772Z,21.3
2022-09-30T13:20:57.616Z,21.4
2022-09-30T13:26:24.464Z,21.4
2022-09-30T13:32:03.472Z,21.4
2022-09-30T13:37:40.976Z,21.4
2022-09-30T13:43:44.050Z,21.4
2022-09-30T13:49:08.731Z,21.4
2022-09-30T13:54:15.073Z,21.6
2022-09-30T13:59:52.829Z,21.5
2022-09-30T14:05:31.263Z,21.6
2022-09-30T14:11:14.764Z,21.6
2022-09-30T14:16:53.437Z,21.6
2022-09-30T14:22:32.718Z,21.6
2022-09-30T14:28:14.771Z,21.6
2022-09-30T14:33:54.478Z,21.6
2022-09-30T14:41:01.639Z,21.6
2022-09-30T14:46:46.066Z,21.6
2022-09-30T14:52:29.361Z,21.7
2022-09-30T14:58:07.482Z,21.6
2022-09-30T15:03:45.858Z,21.7
2022-09-30T15:09:26.476Z,21.7
2022-09-30T15:15:04.390Z,21.8
2022-09-30T15:20:42.471Z,21.8
2022-09-30T15:26:20.329Z,21.8
2022-09-30T15:31:58.802Z,21.8
2022-09-30T15:37:41.600Z,21.9
2022-09-30T15:43:23.532Z,21.8
2022-09-30T15:49:02.713Z,21.8
2022-09-30T15:54:44.478Z,21.7
2022-09-30T16:00:22.841Z,21.8
2022-09-30T16:06:01.046Z,21.8
2022-09-30T16:11:41.624Z,21.8
2022-09-30T16:17:21.828Z,21.8
2022-09-30T16:23:00.810Z,21.9
2022-09-30T16:28:38.013Z,21.8
2022-09-30T16:34:17.428Z,21.9
2022-09-30T16:39:55.322Z,21.8
2022-09-30T16:45:37.539Z,21.8
2022-09-30T16:51:19.950Z,21.9
2022-09-30T16:56:42.721Z,21.9
2022-09-30T17:02:20.293Z,21.9
2022-09-30T17:07:42.643Z,21.9
2022-09-30T17:13:20.484Z,21.9
2022-09-30T17:18:42.530Z,21.8
2022-09-30T17:24:20.106Z,21.8
2022-09-30T17:30:04.867Z,21.8
2022-09-30T17:35:42.567Z,21.9
2022-09-30T17:41:22.109Z,21.8
2022-09-30T17:46:33.227Z,21.8
2022-09-30T17:52:11.110Z,21.8
2022-09-30T17:57:53.141Z,21.8
2022-09-30T18:03:16.982Z,21.8
2022-09-30T18:08:55.100Z,21.8
2022-09-30T18:14:33.318Z,21.8
2022-09-30T18:20:12.175Z,21.8
2022-09-30T18:25:34.266Z,21.8
2022-09-30T18:31:00.782Z,21.7
2022-09-30T18:36:24.441Z,21.8
2022-09-30T18:41:48.007Z,21.8
2022-09-30T18:47:10.961Z,21.8
2022-09-30T18:52:48.964Z,21.8
2022-09-30T18:58:26.290Z,21.8
2022-09-30T19:04:07.961Z,21.8
2022-09-30T19:09:45.710Z,21.7
2022-09-30T19:15:23.481Z,21.8
2022-09-30T19:21:04.560Z,21.8
2022-09-30T19:26:41.998Z,21.8
2022-09-30T19:32:21.003Z,21.8
2022-09-30T19:39:51.178Z,21.7
2022-09-30T19:45:42.658Z,21.7
2022-09-30T19:51:26.324Z,21.8
2022-09-30T19:58:15.355Z,21.8
2022-09-30T20:03:43.379Z,21.8
2022-09-30T20:09:06.583Z,21.7
2022-09-30T20:14:44.043Z,21.7
2022-09-30T20:20:13.194Z,21.7
2022-09-30T20:25:50.981Z,21.7
2022-09-30T20:31:13.812Z,21.7
2022-09-30T20:36:53.417Z,21.7
2022-09-30T20:42:31.292Z,21.6
2022-09-30T20:48:09.094Z,21.7
2022-09-30T20:53:50.439Z,21.6
2022-09-30T20:59:52.773Z,21.6
2022-09-30T21:05:31.127Z,21.7
2022-09-30T21:11:09.107Z,21.6
2022-09-30T21:16:32.132Z,21.6
2022-09-30T21:22:10.074Z,21.6
2022-09-30T21:27:32.104Z,21.6
2022-09-30T21:33:00.195Z,21.6
2022-09-30T21:38:22.397Z,21.6
2022-09-30T21:44:00.866Z,21.6
2022-09-30T21:49:22.573Z,21.6
2022-09-30T21:55:04.569Z,21.6
2022-09-30T22:00:42.500Z,21.6
2022-09-30T22:06:05.079Z,21.6
2022-09-30T22:11:42.885Z,21.6
2022-09-30T22:17:21.123Z,21.6
2022-09-30T22:22:58.932Z,21.6
2022-09-30T22:28:35.898Z,21.6
2022-09-30T22:34:14.078Z,21.6
2022-09-30T22:39:35.803Z,21.6
2022-09-30T22:45:15.999Z,21.6
2022-09-30T22:50:38.203Z,21.6
2022-09-30T22:56:00.166Z,21.5
2022-09-30T23:01:21.187Z,21.6
2022-09-30T23:06:43.631Z,21.5
2022-09-30T23:12:21.355Z,21.6
2022-09-30T23:17:58.567Z,21.6
2022-09-30T23:23:35.941Z,21.5
2022-09-30T23:29:13.156Z,21.5
2022-09-30T23:34:50.589Z,21.5
2022-09-30T23:39:57.571Z,21.5
2022-09-30T23:45:35.180Z,21.5
2022-09-30T23:51:12.895Z,21.4
2022-09-30T23:56:53.936Z,21.4
